createdAt,value
2022-10-25T00:00:02.385Z,15.00
2022-10-25T00:02:41.937Z,14.97
2022-10-25T00:05:16.151Z,15.09
2022-10-25T00:07:46.334Z,15.09
2022-10-25T00:10:21.113Z,15.17
2022-10-25T00:12:54.547Z,15.23
2022-10-25T00:15:24.895Z,15.20
2022-10-25T00:17:54.702Z,15.31
2022-10-25T00:20:24.432Z,15.38
2022-10-25T00:22:54.288Z,15.36
2022-10-25T00:25:26.678Z,15.51
2022-10-25T00:27:56.471Z,15.53
2022-10-25T00:30:26.214Z,15.54
2022-10-25T00:32:55.969Z,15.40
2022-10-25T00:35:25.809Z,15.56
2022-10-25T00:37:55.573Z,15.46
2022-10-25T00:40:27.891Z,15.62
2022-10-25T00:42:57.627Z,15.37
2022-10-25T00:45:29.212Z,15.59
2022-10-25T00:48:01.961Z,15.59
2022-10-25T00:50:50.222Z,15.43
2022-10-25T00:53:23.248Z,15.58
2022-10-25T00:56:02.061Z,15.56
2022-10-25T00:58:36.586Z,15.62
2022-10-25T01:01:09.644Z,15.44
2022-10-25T01:03:42.628Z,15.52
2022-10-25T01:06:21.436Z,15.36
2022-10-25T01:08:52.828Z,15.30
2022-10-25T01:11:25.323Z,15.30
2022-10-25T01:13:55.607Z,15.36
2022-10-25T01:16:34.910Z,15.31
2022-10-25T01:19:23.525Z,15.22
2022-10-25T01:21:56.774Z,15.09
2022-10-25T01:25:00.808Z,15.11
2022-10-25T01:27:59.994Z,15.02
2022-10-25T01:30:38.060Z,15.04
2022-10-25T01:33:23.271Z,14.99
2022-10-25T01:36:00.163Z,14.90
2022-10-25T01:38:41.672Z,14.87
2022-10-25T01:41:20.438Z,15.04
2022-10-25T01:44:00.110Z,14.80
2022-10-25T01:46:35.586Z,14.82
2022-10-25T01:49:14.803Z,14.88
2022-10-25T01:51:44.552Z,14.94
2022-10-25T01:54:22.745Z,14.81
2022-10-25T01:57:06.343Z,14.83
2022-10-25T01:59:51.188Z,14.96
2022-10-25T02:02:27.248Z,14.89
2022-10-25T02:05:07.955Z,14.83
2022-10-25T02:07:41.105Z,14.88
2022-10-25T02:10:14.912Z,14.87
2022-10-25T02:12:54.682Z,14.82
2022-10-25T02:15:28.792Z,14.78
2022-10-25T02:18:02.917Z,14.85
2022-10-25T02:20:40.787Z,14.88
2022-10-25T02:23:13.104Z,14.85
2022-10-25T02:25:45.315Z,14.81
2022-10-25T02:28:17.382Z,14.98
2022-10-25T02:30:47.619Z,14.96
2022-10-25T02:33:17.415Z,14.82
2022-10-25T02:36:07.658Z,14.90
2022-10-25T02:38:38.086Z,14.78
2022-10-25T02:41:09.166Z,15.06
2022-10-25T02:43:38.995Z,14.88
2022-10-25T02:46:09.971Z,15.21
2022-10-25T02:48:40.252Z,15.19
2022-10-25T02:51:14.138Z,15.07
2022-10-25T02:53:44.018Z,15.21
2022-10-25T02:56:16.086Z,15.02
2022-10-25T02:58:48.788Z,15.43
2022-10-25T03:01:21.446Z,15.44
2022-10-25T03:03:51.550Z,15.43
2022-10-25T03:06:24.260Z,15.46
2022-10-25T03:08:53.985Z,15.59
2022-10-25T03:11:23.728Z,15.71
2022-10-25T03:13:53.470Z,15.71
2022-10-25T03:16:23.213Z,15.68
2022-10-25T03:18:53.079Z,15.36
2022-10-25T03:21:25.387Z,15.47
2022-10-25T03:23:55.860Z,15.32
2022-10-25T03:26:25.778Z,15.49
2022-10-25T03:28:55.552Z,15.29
2022-10-25T03:31:25.284Z,15.24
2022-10-25T03:33:55.003Z,15.17
2022-10-25T03:36:27.391Z,15.38
2022-10-25T03:38:57.175Z,15.10
2022-10-25T03:41:27.112Z,15.35
2022-10-25T03:43:56.852Z,15.35
2022-10-25T03:46:26.617Z,15.27
2022-10-25T03:48:56.370Z,15.41
2022-10-25T03:51:28.792Z,15.29
2022-10-25T03:53:58.551Z,15.39
2022-10-25T03:56:28.341Z,15.53
2022-10-25T03:58:58.085Z,15.49
2022-10-25T04:01:27.957Z,15.37
2022-10-25T04:03:57.784Z,15.36
2022-10-25T04:06:30.094Z,15.41
2022-10-25T04:09:00.267Z,15.51
2022-10-25T04:11:30.068Z,15.49
2022-10-25T04:13:59.816Z,15.41
2022-10-25T04:16:29.624Z,15.44
2022-10-25T04:18:59.498Z,15.33
2022-10-25T04:21:31.881Z,15.57
2022-10-25T04:24:04.258Z,15.55
2022-10-25T04:26:35.029Z,15.50
2022-10-25T04:29:05.060Z,15.59
2022-10-25T04:31:35.685Z,15.61
2022-10-25T04:34:05.708Z,15.64
2022-10-25T04:36:39.105Z,15.49
2022-10-25T04:39:09.379Z,15.56
2022-10-25T04:41:39.204Z,15.76
2022-10-25T04:44:08.994Z,15.67
2022-10-25T04:46:38.708Z,15.53
2022-10-25T04:49:08.420Z,15.76
2022-10-25T04:51:40.840Z,15.64
2022-10-25T04:54:10.716Z,15.79
2022-10-25T04:56:40.434Z,15.80
2022-10-25T04:59:11.825Z,15.76
2022-10-25T05:01:41.647Z,15.58
2022-10-25T05:04:11.580Z,15.65
2022-10-25T05:06:45.978Z,15.80
2022-10-25T05:09:16.803Z,15.77
2022-10-25T05:11:46.653Z,15.74
2022-10-25T05:14:17.145Z,15.65
2022-10-25T05:16:53.000Z,15.16
2022-10-25T05:19:23.862Z,15.55
2022-10-25T05:21:57.337Z,15.50
2022-10-25T05:24:28.201Z,15.59
2022-10-25T05:27:02.958Z,15.56
2022-10-25T05:29:33.890Z,15.45
2022-10-25T05:32:04.750Z,15.32
2022-10-25T05:34:35.629Z,15.21
2022-10-25T05:37:09.053Z,15.32
2022-10-25T05:39:40.851Z,15.38
2022-10-25T05:42:11.691Z,15.33
2022-10-25T05:44:42.532Z,15.32
2022-10-25T05:47:13.451Z,15.38
2022-10-25T05:49:44.281Z,15.31
2022-10-25T05:52:17.687Z,15.33
2022-10-25T05:54:48.534Z,15.15
2022-10-25T05:57:18.532Z,15.31
2022-10-25T05:59:49.374Z,15.25
2022-10-25T06:02:20.348Z,15.14
2022-10-25T06:04:53.810Z,15.18
2022-10-25T06:07:27.276Z,15.37
2022-10-25T06:09:57.040Z,15.34
2022-10-25T06:12:27.972Z,15.38
2022-10-25T06:14:58.964Z,15.29
2022-10-25T06:17:29.382Z,15.45
2022-10-25T06:20:00.370Z,15.29
2022-10-25T06:22:33.236Z,15.25
2022-10-25T06:25:03.310Z,15.21
2022-10-25T06:27:33.304Z,15.32
2022-10-25T06:30:03.409Z,15.21
2022-10-25T06:32:33.664Z,15.30
2022-10-25T06:35:04.906Z,15.42
2022-10-25T06:37:37.513Z,15.48
2022-10-25T06:40:09.230Z,15.49
2022-10-25T06:42:39.286Z,15.44
2022-10-25T06:45:09.979Z,15.42
2022-10-25T06:47:40.819Z,15.40
2022-10-25T06:50:11.929Z,15.47
2022-10-25T06:52:45.650Z,15.49
2022-10-25T06:55:15.686Z,15.38
2022-10-25T06:57:45.495Z,15.53
2022-10-25T07:00:16.106Z,15.41
2022-10-25T07:02:47.042Z,15.16
2022-10-25T07:05:17.168Z,15.58
2022-10-25T07:07:50.511Z,15.67
2022-10-25T07:10:22.256Z,15.49
2022-10-25T07:12:53.040Z,15.50
2022-10-25T07:15:25.098Z,15.71
2022-10-25T07:17:57.740Z,15.66
2022-10-25T07:20:28.675Z,15.70
2022-10-25T07:23:03.353Z,15.71
2022-10-25T07:25:37.180Z,15.68
2022-10-25T07:28:07.402Z,15.49
2022-10-25T07:30:38.328Z,15.46
2022-10-25T07:33:09.073Z,15.66
2022-10-25T07:35:52.224Z,15.44
2022-10-25T07:38:33.330Z,15.50
2022-10-25T07:41:04.594Z,15.75
2022-10-25T07:43:35.472Z,15.74
2022-10-25T07:46:08.032Z,15.86
2022-10-25T07:48:38.343Z,15.80
2022-10-25T07:51:11.208Z,15.48
2022-10-25T07:53:44.027Z,15.64
2022-10-25T07:56:20.466Z,15.69
2022-10-25T07:58:54.589Z,15.62
2022-10-25T08:01:27.359Z,15.84
2022-10-25T08:03:58.548Z,15.76
2022-10-25T08:06:29.411Z,15.85
2022-10-25T08:09:09.751Z,15.74
2022-10-25T08:11:45.012Z,16.00
2022-10-25T08:14:15.977Z,15.98
2022-10-25T08:16:47.189Z,16.13
2022-10-25T08:19:18.046Z,16.08
2022-10-25T08:21:49.248Z,16.14
2022-10-25T08:24:22.701Z,15.69
2022-10-25T08:26:53.514Z,16.21
2022-10-25T08:29:24.371Z,15.93
2022-10-25T08:31:55.179Z,16.18
2022-10-25T08:34:29.577Z,16.07
2022-10-25T08:37:03.204Z,16.26
2022-10-25T08:39:40.643Z,16.31
2022-10-25T08:42:18.390Z,16.21
2022-10-25T08:44:58.598Z,16.38
2022-10-25T08:47:34.065Z,16.39
2022-10-25T08:50:09.232Z,16.47
2022-10-25T08:52:43.084Z,16.40
2022-10-25T08:55:20.470Z,16.48
2022-10-25T08:57:52.095Z,16.60
2022-10-25T09:00:24.776Z,16.46
2022-10-25T09:02:57.253Z,16.32
2022-10-25T09:05:39.337Z,16.42
2022-10-25T09:08:24.941Z,16.17
2022-10-25T09:11:06.455Z,16.22
2022-10-25T09:13:45.781Z,16.23
2022-10-25T09:16:19.515Z,16.30
2022-10-25T09:18:54.162Z,16.27
2022-10-25T09:21:31.622Z,16.38
2022-10-25T09:24:05.232Z,16.44
2022-10-25T09:26:49.072Z,16.25
2022-10-25T09:29:25.888Z,16.43
2022-10-25T09:32:01.720Z,16.40
2022-10-25T09:34:35.717Z,16.63
2022-10-25T09:37:12.996Z,16.76
2022-10-25T09:39:46.876Z,16.70
2022-10-25T09:42:24.532Z,16.84
2022-10-25T09:44:59.608Z,16.87
2022-10-25T09:47:39.144Z,16.68
2022-10-25T09:50:18.518Z,16.98
2022-10-25T09:53:00.877Z,17.13
2022-10-25T09:55:37.923Z,17.07
2022-10-25T09:58:14.024Z,17.11
2022-10-25T10:00:44.906Z,17.02
2022-10-25T10:03:15.772Z,17.11
2022-10-25T10:05:51.731Z,17.00
2022-10-25T10:08:22.499Z,16.91
2022-10-25T10:10:53.702Z,16.96
2022-10-25T10:13:33.889Z,16.94
2022-10-25T10:16:08.000Z,16.87
2022-10-25T10:18:38.113Z,16.89
2022-10-25T10:21:15.286Z,16.87
2022-10-25T10:23:53.172Z,17.06
2022-10-25T10:26:31.341Z,17.00
2022-10-25T10:29:18.932Z,17.00
2022-10-25T10:31:51.264Z,17.13
2022-10-25T10:34:27.976Z,17.29
2022-10-25T10:37:07.477Z,17.20
2022-10-25T10:39:37.435Z,17.16
2022-10-25T10:42:18.570Z,17.35
2022-10-25T10:45:12.372Z,17.36
2022-10-25T10:47:46.813Z,17.33
2022-10-25T10:50:27.013Z,17.34
2022-10-25T10:53:01.110Z,17.25
2022-10-25T10:55:33.559Z,17.20
2022-10-25T10:58:05.911Z,17.35
2022-10-25T11:00:38.760Z,17.16
2022-10-25T11:03:08.696Z,17.42
2022-10-25T11:05:43.865Z,17.46
2022-10-25T11:08:21.884Z,17.57
2022-10-25T11:10:51.768Z,17.55
2022-10-25T11:13:25.601Z,17.66
2022-10-25T11:16:11.123Z,17.40
2022-10-25T11:19:03.214Z,17.61
2022-10-25T11:21:56.676Z,17.65
2022-10-25T11:24:36.585Z,17.74
2022-10-25T11:27:16.187Z,17.75
2022-10-25T11:30:02.200Z,17.87
2022-10-25T11:32:57.589Z,17.86
2022-10-25T11:35:45.619Z,18.01
2022-10-25T11:38:22.829Z,18.23
2022-10-25T11:41:03.200Z,18.23
2022-10-25T11:43:52.047Z,18.15
2022-10-25T11:46:31.036Z,18.10
2022-10-25T11:49:30.242Z,17.84
2022-10-25T11:52:24.851Z,18.09
2022-10-25T11:55:02.372Z,18.13
2022-10-25T11:57:43.423Z,18.04
2022-10-25T12:00:18.946Z,18.30
2022-10-25T12:03:05.936Z,18.47
2022-10-25T12:05:48.053Z,18.43
2022-10-25T12:08:32.097Z,18.33
2022-10-25T12:11:08.815Z,18.45
2022-10-25T12:13:45.734Z,18.32
2022-10-25T12:16:20.435Z,18.48
2022-10-25T12:18:54.084Z,18.43
2022-10-25T12:21:31.045Z,18.37
2022-10-25T12:24:05.303Z,18.21
2022-10-25T12:26:39.184Z,18.17
2022-10-25T12:29:19.202Z,18.10
2022-10-25T12:31:56.818Z,18.30
2022-10-25T12:34:35.521Z,18.30
2022-10-25T12:37:16.520Z,18.11
2022-10-25T12:39:48.553Z,18.43
2022-10-25T12:42:23.034Z,18.33
2022-10-25T12:45:08.194Z,18.45
2022-10-25T12:47:57.261Z,18.31
2022-10-25T12:50:49.994Z,18.32
2022-10-25T12:53:51.164Z,18.06
2022-10-25T12:56:35.481Z,18.00
2022-10-25T12:59:11.970Z,17.88
2022-10-25T13:02:25.869Z,17.82
2022-10-25T13:05:09.851Z,17.85
2022-10-25T13:07:41.621Z,18.06
2022-10-25T13:10:23.861Z,18.19
2022-10-25T13:13:03.051Z,18.35
2022-10-25T13:15:45.036Z,18.41
2022-10-25T13:18:30.006Z,18.45
2022-10-25T13:21:02.096Z,18.29
2022-10-25T13:24:03.725Z,18.35
2022-10-25T13:27:15.026Z,18.31
2022-10-25T13:29:51.337Z,18.32
2022-10-25T13:32:22.938Z,18.34
2022-10-25T13:34:53.834Z,18.36
2022-10-25T13:37:46.822Z,18.60
2022-10-25T13:40:24.565Z,18.67
2022-10-25T13:43:09.079Z,18.64
2022-10-25T13:45:43.350Z,18.60
2022-10-25T13:48:32.376Z,18.76
2022-10-25T13:51:09.848Z,18.89
2022-10-25T13:53:44.167Z,18.95
2022-10-25T13:56:17.435Z,18.90
2022-10-25T13:58:52.854Z,18.93
2022-10-25T14:01:57.370Z,18.84
2022-10-25T14:04:38.899Z,18.69
2022-10-25T14:07:39.620Z,18.70
2022-10-25T14:10:15.304Z,18.56
2022-10-25T14:12:51.028Z,18.54
2022-10-25T14:15:38.321Z,18.60
2022-10-25T14:18:18.040Z,18.38
2022-10-25T14:20:50.626Z,18.46
2022-10-25T14:23:24.776Z,18.37
2022-10-25T14:25:58.607Z,18.38
2022-10-25T14:28:30.328Z,18.33
2022-10-25T14:31:04.375Z,18.18
2022-10-25T14:33:39.425Z,18.27
2022-10-25T14:36:23.499Z,18.31
2022-10-25T14:38:56.043Z,18.28
2022-10-25T14:41:28.755Z,18.15
2022-10-25T14:44:00.679Z,18.22
2022-10-25T14:46:36.363Z,18.31
2022-10-25T14:49:11.658Z,18.22
2022-10-25T14:51:46.223Z,18.22
2022-10-25T14:54:28.732Z,18.24
2022-10-25T14:57:03.323Z,18.33
2022-10-25T14:59:42.506Z,18.27
2022-10-25T15:02:20.659Z,18.22
2022-10-25T15:04:53.774Z,18.18
2022-10-25T15:07:27.061Z,17.87
2022-10-25T15:10:00.159Z,17.95
2022-10-25T15:12:37.202Z,18.06
2022-10-25T15:15:34.103Z,18.01
2022-10-25T15:18:07.647Z,17.95
2022-10-25T15:20:38.440Z,18.01
2022-10-25T15:23:18.170Z,17.87
2022-10-25T15:25:48.087Z,17.74
2022-10-25T15:28:20.624Z,17.72
2022-10-25T15:31:05.091Z,17.63
2022-10-25T15:33:38.432Z,17.61
2022-10-25T15:36:10.026Z,17.41
2022-10-25T15:39:06.185Z,17.38
2022-10-25T15:41:31.694Z,17.23
2022-10-25T15:44:02.628Z,17.02
2022-10-25T15:46:35.671Z,16.73
2022-10-25T15:49:10.073Z,16.94
2022-10-25T15:51:44.909Z,16.72
2022-10-25T15:54:18.270Z,16.80
2022-10-25T15:56:54.171Z,16.80
2022-10-25T15:59:25.018Z,16.80
2022-10-25T16:01:56.162Z,16.58
2022-10-25T16:04:29.853Z,16.67
2022-10-25T16:07:00.838Z,16.68
2022-10-25T16:09:32.346Z,16.61
2022-10-25T16:12:02.758Z,16.52
2022-10-25T16:14:32.680Z,16.50
2022-10-25T16:17:03.487Z,16.57
2022-10-25T16:19:36.936Z,16.64
2022-10-25T16:22:07.750Z,16.64
2022-10-25T16:24:38.615Z,16.46
2022-10-25T16:27:09.359Z,16.55
2022-10-25T16:29:41.370Z,16.53
2022-10-25T16:32:12.199Z,16.39
2022-10-25T16:34:46.193Z,16.48
2022-10-25T16:37:16.942Z,16.31
2022-10-25T16:39:47.766Z,16.21
2022-10-25T16:42:32.073Z,16.32
2022-10-25T16:45:03.679Z,16.27
2022-10-25T16:47:34.740Z,16.13
2022-10-25T16:50:09.878Z,15.99
2022-10-25T16:52:41.784Z,16.01
2022-10-25T16:55:13.522Z,16.05
2022-10-25T16:57:44.415Z,15.77
2022-10-25T17:00:16.438Z,15.52
2022-10-25T17:02:51.383Z,15.42
2022-10-25T17:05:28.015Z,15.61
2022-10-25T17:07:59.033Z,15.47
2022-10-25T17:10:29.908Z,15.48
2022-10-25T17:13:03.296Z,15.61
2022-10-25T17:15:34.515Z,15.56
2022-10-25T17:18:05.369Z,15.56
2022-10-25T17:20:38.200Z,15.51
2022-10-25T17:23:09.009Z,15.49
2022-10-25T17:25:40.069Z,15.52
2022-10-25T17:28:10.825Z,15.47
2022-10-25T17:30:44.115Z,15.38
2022-10-25T17:33:14.889Z,15.44
2022-10-25T17:35:48.313Z,15.45
2022-10-25T17:38:19.380Z,15.47
2022-10-25T17:40:51.264Z,15.47
2022-10-25T17:43:21.092Z,15.41
2022-10-25T17:45:52.031Z,15.37
2022-10-25T17:48:22.887Z,15.30
2022-10-25T17:50:55.588Z,15.19
2022-10-25T17:53:26.421Z,15.11
2022-10-25T17:55:57.224Z,15.17
2022-10-25T17:58:28.053Z,15.01
2022-10-25T18:00:57.804Z,14.80
2022-10-25T18:03:31.429Z,14.81
2022-10-25T18:06:06.040Z,14.90
2022-10-25T18:08:39.124Z,14.90
2022-10-25T18:11:13.182Z,14.96
2022-10-25T18:13:44.444Z,14.93
2022-10-25T18:16:17.022Z,14.86
2022-10-25T18:18:46.862Z,14.86
2022-10-25T18:21:20.573Z,14.64
2022-10-25T18:23:52.463Z,14.70
2022-10-25T18:26:23.304Z,14.71
2022-10-25T18:28:55.211Z,14.75
2022-10-25T18:31:27.224Z,14.54
2022-10-25T18:34:03.385Z,14.43
2022-10-25T18:36:36.004Z,14.44
2022-10-25T18:39:07.282Z,14.48
2022-10-25T18:41:40.935Z,14.48
2022-10-25T18:44:15.075Z,14.40
2022-10-25T18:46:45.486Z,14.45
2022-10-25T18:49:16.818Z,14.32
2022-10-25T18:51:49.266Z,14.37
2022-10-25T18:54:19.026Z,14.07
2022-10-25T18:56:48.942Z,14.14
2022-10-25T18:59:18.769Z,14.17
2022-10-25T19:01:49.888Z,14.32
2022-10-25T19:04:19.718Z,14.35
2022-10-25T19:06:52.384Z,14.53
2022-10-25T19:09:22.256Z,14.56
2022-10-25T19:11:52.232Z,14.61
2022-10-25T19:14:24.191Z,14.55
2022-10-25T19:16:54.199Z,14.50
2022-10-25T19:19:24.231Z,14.58
2022-10-25T19:21:58.199Z,14.34
2022-10-25T19:24:28.730Z,14.48
2022-10-25T19:26:59.590Z,14.41
2022-10-25T19:29:29.572Z,14.50
2022-10-25T19:32:00.396Z,14.52
2022-10-25T19:34:30.320Z,14.32
2022-10-25T19:37:04.485Z,14.53
2022-10-25T19:39:34.410Z,14.35
2022-10-25T19:42:04.555Z,14.37
2022-10-25T19:44:34.342Z,14.00
2022-10-25T19:47:04.168Z,14.29
2022-10-25T19:49:34.750Z,14.35
2022-10-25T19:52:07.515Z,14.25
2022-10-25T19:54:38.551Z,14.26
2022-10-25T19:57:08.828Z,14.30
2022-10-25T19:59:38.604Z,14.25
2022-10-25T20:02:09.682Z,14.09
2022-10-25T20:04:39.648Z,14.12
2022-10-25T20:07:13.096Z,14.15
2022-10-25T20:09:42.962Z,14.00
2022-10-25T20:12:12.730Z,14.06
2022-10-25T20:14:42.909Z,13.90
2022-10-25T20:17:14.187Z,14.00
2022-10-25T20:19:43.919Z,13.76
2022-10-25T20:22:17.591Z,13.81
2022-10-25T20:24:47.363Z,13.84
2022-10-25T20:27:18.159Z,13.80
2022-10-25T20:29:47.987Z,13.61
2022-10-25T20:32:17.791Z,13.60
2022-10-25T20:34:48.592Z,13.36
2022-10-25T20:37:21.010Z,13.71
2022-10-25T20:39:51.855Z,13.63
2022-10-25T20:42:21.627Z,13.67
2022-10-25T20:44:53.441Z,13.65
2022-10-25T20:47:24.255Z,13.55
2022-10-25T20:49:54.990Z,13.55
2022-10-25T20:52:27.394Z,13.40
2022-10-25T20:57:48.641Z,13.48
2022-10-25T21:00:20.603Z,13.31
2022-10-25T21:02:50.607Z,13.47
2022-10-25T21:05:21.437Z,13.53
2022-10-25T21:07:54.830Z,13.32
2022-10-25T21:10:25.679Z,13.45
2022-10-25T21:12:56.475Z,13.44
2022-10-25T21:15:26.285Z,13.42
2022-10-25T21:17:57.147Z,13.26
2022-10-25T21:20:26.976Z,13.26
2022-10-25T21:23:01.010Z,13.32
2022-10-25T21:25:30.879Z,13.25
2022-10-25T21:28:00.679Z,13.15
2022-10-25T21:30:30.559Z,12.94
2022-10-25T21:33:00.423Z,13.10
2022-10-25T21:35:30.217Z,13.10
2022-10-25T21:38:02.628Z,13.16
2022-10-25T21:40:32.437Z,13.00
2022-10-25T21:43:02.219Z,13.04
2022-10-25T21:45:32.066Z,13.14
2022-10-25T21:48:01.855Z,13.10
2022-10-25T21:50:31.678Z,12.96
2022-10-25T21:53:04.141Z,12.99
2022-10-25T21:55:33.975Z,12.96
2022-10-25T21:58:03.765Z,12.93
2022-10-25T22:00:33.513Z,12.91
2022-10-25T22:03:03.275Z,12.82
2022-10-25T22:05:33.145Z,12.79
2022-10-25T22:08:05.636Z,12.79
2022-10-25T22:10:35.396Z,12.63
2022-10-25T22:13:05.308Z,12.58
2022-10-25T22:15:35.047Z,12.58
2022-10-25T22:18:04.762Z,12.39
2022-10-25T22:20:34.539Z,12.55
2022-10-25T22:23:06.946Z,12.45
2022-10-25T22:25:36.703Z,12.53
2022-10-25T22:28:06.665Z,12.41
2022-10-25T22:30:36.416Z,12.44
2022-10-25T22:33:06.162Z,12.48
2022-10-25T22:35:36.444Z,12.35
2022-10-25T22:38:08.814Z,12.48
2022-10-25T22:40:38.571Z,12.25
2022-10-25T22:43:08.307Z,12.30
2022-10-25T22:45:38.486Z,12.25
2022-10-25T22:48:08.490Z,12.27
2022-10-25T22:50:38.325Z,12.20
2022-10-25T22:53:11.031Z,12.30
2022-10-25T22:55:40.763Z,12.15
2022-10-25T22:58:10.536Z,12.17
2022-10-25T23:00:40.328Z,12.19
2022-10-25T23:03:10.132Z,12.16
2022-10-25T23:05:39.878Z,12.16
2022-10-25T23:08:12.366Z,12.20
2022-10-25T23:10:42.095Z,12.04
2022-10-25T23:13:11.828Z,12.14
2022-10-25T23:15:41.848Z,12.07
2022-10-25T23:18:11.583Z,12.10
2022-10-25T23:20:41.335Z,12.03
2022-10-25T23:23:13.631Z,12.01
2022-10-25T23:25:43.392Z,11.91
2022-10-25T23:28:13.237Z,11.82
2022-10-25T23:30:43.771Z,11.84
2022-10-25T23:33:15.507Z,11.91
2022-10-25T23:35:45.294Z,11.89
2022-10-25T23:38:17.618Z,11.82
2022-10-25T23:40:49.654Z,11.70
2022-10-25T23:43:19.367Z,11.68
2022-10-25T23:45:49.172Z,11.76
2022-10-25T23:48:18.953Z,11.76
2022-10-25T23:50:48.710Z,11.52
2022-10-25T23:53:21.084Z,11.64
2022-10-25T23:55:50.879Z,11.57
2022-10-25T23:58:20.588Z,11.54
